createdAt,value
2018-08-18T00:00:31.522Z,51.40
2018-08-18T00:01:36.439Z,51.50
2018-08-18T00:02:41.372Z,51.50
2018-08-18T00:03:46.451Z,51.50
2018-08-18T00:04:51.366Z,51.40
2018-08-18T00:05:56.514Z,51.40
2018-08-18T00:07:01.256Z,51.40
2018-08-18T00:08:06.227Z,51.40
2018-08-18T00:09:11.319Z,51.40
2018-08-18T00:10:16.213Z,51.50
2018-08-18T00:11:21.257Z,51.30
2018-08-18T00:12:26.486Z,51.30
2018-08-18T00:13:31.182Z,51.30
2018-08-18T00:14:35.861Z,51.30
2018-08-18T00:15:40.551Z,51.30
2018-08-18T00:16:45.504Z,51.20
2018-08-18T00:17:50.437Z,51.30
2018-08-18T00:18:55.129Z,51.30
2018-08-18T00:19:59.868Z,51.30
2018-08-18T00:21:04.786Z,51.20
2018-08-18T00:22:09.891Z,51.30
2018-08-18T00:23:14.785Z,51.20
2018-08-18T00:24:19.741Z,51.30
2018-08-18T00:25:24.706Z,51.30
2018-08-18T00:26:29.549Z,51.20
2018-08-18T00:27:34.516Z,51.20
2018-08-18T00:28:39.467Z,51.20
2018-08-18T00:29:44.406Z,51.20
2018-08-18T00:30:49.307Z,51.20
2018-08-18T00:31:54.039Z,51.20
2018-08-18T00:32:58.990Z,51.20
2018-08-18T00:34:03.913Z,51.10
2018-08-18T00:35:08.602Z,51.20
2018-08-18T00:36:13.346Z,51.20
2018-08-18T00:37:18.291Z,51.20
2018-08-18T00:38:22.976Z,51.20
2018-08-18T00:39:28.053Z,51.10
2018-08-18T00:40:32.961Z,51.10
2018-08-18T00:41:38.107Z,51.10
2018-08-18T00:42:43.081Z,51.10
2018-08-18T00:43:48.133Z,51.10
2018-08-18T00:44:53.185Z,51.10
2018-08-18T00:45:58.349Z,51.10
2018-08-18T00:47:03.205Z,51.10
2018-08-18T00:48:08.153Z,51.10
2018-08-18T00:49:12.872Z,51.10
2018-08-18T00:50:17.935Z,51.10
2018-08-18T00:51:22.820Z,51.10
2018-08-18T00:52:27.660Z,51.10
2018-08-18T00:53:32.591Z,51.10
2018-08-18T00:54:37.534Z,51.00
2018-08-18T00:55:42.627Z,51.10
2018-08-18T00:56:47.523Z,51.00
2018-08-18T00:57:52.396Z,51.00
2018-08-18T00:58:57.112Z,51.00
2018-08-18T01:00:02.058Z,51.00
2018-08-18T01:01:07.218Z,51.70
2018-08-18T01:02:12.381Z,51.00
2018-08-18T01:03:17.140Z,51.00
2018-08-18T01:04:22.055Z,51.00
2018-08-18T01:05:26.727Z,51.00
2018-08-18T01:06:31.802Z,51.00
2018-08-18T01:07:36.521Z,51.00
2018-08-18T01:08:41.634Z,51.00
2018-08-18T01:09:46.578Z,51.00
2018-08-18T01:10:51.372Z,50.90
2018-08-18T01:11:56.559Z,51.00
2018-08-18T01:13:01.502Z,50.90
2018-08-18T01:14:06.326Z,50.90
2018-08-18T01:15:11.245Z,50.90
2018-08-18T01:16:16.355Z,50.90
2018-08-18T01:17:21.054Z,50.90
2018-08-18T01:18:26.030Z,50.90
2018-08-18T01:19:31.133Z,50.90
2018-08-18T01:20:35.914Z,50.80
2018-08-18T01:21:41.036Z,50.80
2018-08-18T01:22:46.145Z,50.80
2018-08-18T01:23:51.131Z,50.80
2018-08-18T01:24:55.921Z,50.90
2018-08-18T01:26:00.666Z,50.90
2018-08-18T01:27:05.396Z,50.90
2018-08-18T01:28:10.481Z,51.50
2018-08-18T01:29:15.445Z,50.80
2018-08-18T01:30:20.354Z,50.90
2018-08-18T01:31:27.070Z,50.90
2018-08-18T01:32:31.988Z,50.90
2018-08-18T01:33:36.766Z,50.90
2018-08-18T01:34:41.736Z,50.90
2018-08-18T01:35:46.649Z,50.90
2018-08-18T01:36:51.767Z,50.90
2018-08-18T01:37:56.484Z,50.90
2018-08-18T01:39:01.363Z,50.90
2018-08-18T01:40:06.483Z,50.90
2018-08-18T01:41:11.570Z,50.90
2018-08-18T01:42:16.417Z,50.90
2018-08-18T01:43:21.499Z,50.90
2018-08-18T01:44:26.243Z,50.90
2018-08-18T01:45:31.037Z,50.90
2018-08-18T01:46:35.945Z,50.90
2018-08-18T01:47:40.892Z,50.80
2018-08-18T01:48:45.877Z,50.80
2018-08-18T01:49:50.858Z,50.80
2018-08-18T01:50:55.740Z,50.70
2018-08-18T01:52:00.680Z,50.70
2018-08-18T01:53:05.591Z,50.80
2018-08-18T01:54:10.489Z,50.70
2018-08-18T01:55:15.449Z,50.70
2018-08-18T01:56:20.539Z,50.70
2018-08-18T01:57:25.600Z,50.70
2018-08-18T01:58:30.767Z,50.70
2018-08-18T01:59:35.717Z,50.70
2018-08-18T02:00:40.405Z,50.70
2018-08-18T02:01:45.276Z,50.60
2018-08-18T02:02:50.130Z,50.60
2018-08-18T02:03:55.090Z,50.60
2018-08-18T02:04:59.999Z,50.60
2018-08-18T02:06:05.034Z,50.60
2018-08-18T02:07:10.074Z,50.60
2018-08-18T02:08:14.950Z,50.60
2018-08-18T02:09:20.033Z,50.60
2018-08-18T02:10:24.754Z,50.60
2018-08-18T02:11:29.452Z,50.70
2018-08-18T02:12:34.354Z,50.60
2018-08-18T02:13:39.460Z,50.60
2018-08-18T02:14:44.361Z,50.50
2018-08-18T02:15:49.643Z,50.60
2018-08-18T02:16:54.558Z,50.60
2018-08-18T02:17:59.507Z,50.60
2018-08-18T02:19:04.452Z,50.50
2018-08-18T02:20:09.436Z,50.60
2018-08-18T02:21:14.348Z,50.50
2018-08-18T02:22:19.227Z,50.50
2018-08-18T02:23:24.218Z,50.50
2018-08-18T02:24:28.959Z,50.50
2018-08-18T02:25:33.730Z,50.50
2018-08-18T02:26:38.435Z,50.50
2018-08-18T02:27:43.381Z,50.50
2018-08-18T02:28:48.331Z,50.50
2018-08-18T02:29:53.161Z,50.50
2018-08-18T02:30:58.075Z,50.40
2018-08-18T02:32:02.851Z,50.40
2018-08-18T02:33:07.923Z,50.40
2018-08-18T02:34:12.814Z,50.40
2018-08-18T02:35:17.767Z,50.40
2018-08-18T02:36:22.673Z,50.30
2018-08-18T02:37:27.738Z,50.30
2018-08-18T02:38:34.937Z,50.30
2018-08-18T02:39:40.041Z,50.30
2018-08-18T02:40:44.919Z,50.30
2018-08-18T02:41:49.761Z,50.30
2018-08-18T02:42:54.642Z,50.20
2018-08-18T02:43:59.597Z,50.20
2018-08-18T02:45:04.345Z,50.10
2018-08-18T02:46:09.265Z,50.10
2018-08-18T02:47:14.206Z,50.10
2018-08-18T02:48:19.299Z,50.10
2018-08-18T02:49:24.227Z,50.10
2018-08-18T02:50:29.363Z,50.10
2018-08-18T02:51:34.294Z,50.10
2018-08-18T02:52:39.391Z,50.10
2018-08-18T02:53:44.301Z,50.10
2018-08-18T02:54:48.996Z,50.00
2018-08-18T02:55:54.108Z,50.10
2018-08-18T02:56:59.020Z,50.10
2018-08-18T02:58:04.171Z,50.10
2018-08-18T02:59:08.996Z,50.10
2018-08-18T03:00:13.878Z,50.10
2018-08-18T03:01:18.827Z,50.10
2018-08-18T03:02:23.819Z,50.10
2018-08-18T03:03:28.926Z,50.10
2018-08-18T03:04:33.872Z,50.10
2018-08-18T03:05:38.773Z,50.10
2018-08-18T03:06:43.701Z,50.10
2018-08-18T03:07:48.579Z,50.10
2018-08-18T03:08:53.223Z,50.10
2018-08-18T03:09:58.187Z,50.10
2018-08-18T03:11:03.317Z,50.10
2018-08-18T03:12:08.440Z,50.10
2018-08-18T03:13:13.385Z,50.10
2018-08-18T03:14:18.089Z,50.10
2018-08-18T03:15:23.189Z,50.10
2018-08-18T03:16:28.307Z,50.20
2018-08-18T03:17:33.010Z,50.10
2018-08-18T03:18:37.902Z,50.10
2018-08-18T03:19:43.031Z,50.10
2018-08-18T03:20:47.927Z,50.10
2018-08-18T03:21:52.832Z,50.10
2018-08-18T03:22:57.617Z,50.10
2018-08-18T03:24:02.728Z,50.10
2018-08-18T03:25:07.657Z,50.10
2018-08-18T03:26:12.737Z,50.10
2018-08-18T03:27:17.690Z,50.10
2018-08-18T03:28:22.638Z,50.10
2018-08-18T03:29:27.612Z,50.10
2018-08-18T03:30:33.595Z,50.10
2018-08-18T03:31:38.654Z,50.10
2018-08-18T03:32:43.655Z,50.10
2018-08-18T03:33:48.383Z,50.10
2018-08-18T03:34:53.509Z,50.10
2018-08-18T03:35:58.387Z,50.10
2018-08-18T03:37:03.495Z,50.10
2018-08-18T03:38:08.667Z,50.10
2018-08-18T03:39:13.709Z,50.00
2018-08-18T03:40:18.451Z,50.00
2018-08-18T03:41:23.444Z,50.00
2018-08-18T03:42:28.392Z,50.00
2018-08-18T03:43:33.330Z,50.00
2018-08-18T03:44:38.058Z,49.90
2018-08-18T03:45:42.893Z,49.80
2018-08-18T03:46:48.006Z,49.90
2018-08-18T03:47:53.133Z,49.80
2018-08-18T03:48:57.835Z,50.00
2018-08-18T03:50:02.815Z,49.90
2018-08-18T03:51:07.782Z,49.90
2018-08-18T03:52:12.680Z,50.00
2018-08-18T03:53:17.605Z,50.00
2018-08-18T03:54:22.727Z,50.10
2018-08-18T03:55:27.792Z,50.10
2018-08-18T03:56:32.627Z,50.00
2018-08-18T03:57:37.375Z,49.90
2018-08-18T03:58:42.494Z,49.90
2018-08-18T03:59:47.297Z,49.80
2018-08-18T04:00:52.413Z,49.80
2018-08-18T04:01:57.626Z,49.80
2018-08-18T04:03:02.641Z,49.80
2018-08-18T04:04:07.422Z,49.80
2018-08-18T04:05:12.374Z,49.80
2018-08-18T04:06:17.472Z,49.80
2018-08-18T04:07:22.275Z,49.80
2018-08-18T04:08:27.000Z,49.80
2018-08-18T04:09:31.953Z,49.80
2018-08-18T04:10:36.905Z,49.80
2018-08-18T04:11:41.867Z,49.80
2018-08-18T04:12:46.791Z,49.80
2018-08-18T04:13:51.656Z,49.80
2018-08-18T04:14:56.354Z,49.80
2018-08-18T04:16:01.307Z,49.80
2018-08-18T04:17:06.294Z,49.80
2018-08-18T04:18:11.233Z,49.80
2018-08-18T04:19:16.115Z,49.70
2018-08-18T04:20:22.515Z,49.70
2018-08-18T04:21:28.238Z,49.70
2018-08-18T04:22:33.342Z,49.70
2018-08-18T04:23:38.262Z,49.60
2018-08-18T04:24:43.421Z,49.70
2018-08-18T04:25:48.362Z,49.70
2018-08-18T04:26:53.191Z,49.60
2018-08-18T04:27:57.893Z,49.60
2018-08-18T04:29:02.643Z,49.70
2018-08-18T04:30:07.739Z,49.60
2018-08-18T04:31:12.910Z,49.70
2018-08-18T04:32:17.667Z,49.70
2018-08-18T04:33:22.400Z,49.70
2018-08-18T04:34:27.131Z,49.70
2018-08-18T04:35:32.195Z,49.80
2018-08-18T04:36:37.106Z,49.80
2018-08-18T04:37:41.997Z,49.70
2018-08-18T04:38:46.856Z,49.70
2018-08-18T04:39:51.773Z,49.70
2018-08-18T04:40:56.906Z,49.70
2018-08-18T04:42:01.901Z,49.80
2018-08-18T04:43:06.692Z,49.70
2018-08-18T04:44:11.562Z,49.70
2018-08-18T04:45:16.493Z,49.70
2018-08-18T04:46:21.567Z,49.70
2018-08-18T04:47:26.318Z,49.70
2018-08-18T04:48:31.268Z,49.70
2018-08-18T04:49:36.203Z,49.70
2018-08-18T04:50:41.158Z,49.60
2018-08-18T04:51:46.298Z,49.60
2018-08-18T04:52:51.251Z,50.30
2018-08-18T04:53:56.329Z,49.70
2018-08-18T04:55:01.254Z,49.60
2018-08-18T04:56:06.374Z,49.60
2018-08-18T04:57:11.122Z,49.70
2018-08-18T04:58:15.974Z,49.60
2018-08-18T04:59:20.961Z,49.70
2018-08-18T05:00:25.855Z,49.70
2018-08-18T05:01:30.589Z,49.60
2018-08-18T05:02:35.332Z,49.70
2018-08-18T05:03:40.272Z,49.60
2018-08-18T05:04:45.061Z,50.30
2018-08-18T05:05:50.053Z,49.60
2018-08-18T05:06:54.812Z,49.50
2018-08-18T05:07:59.725Z,49.50
2018-08-18T05:09:04.660Z,49.50
2018-08-18T05:10:09.600Z,49.50
2018-08-18T05:11:14.300Z,49.50
2018-08-18T05:12:19.229Z,49.50
2018-08-18T05:13:23.929Z,49.50
2018-08-18T05:14:29.037Z,49.60
2018-08-18T05:15:34.157Z,49.50
2018-08-18T05:16:39.110Z,49.50
2018-08-18T05:17:44.056Z,49.50
2018-08-18T05:18:49.002Z,49.50
2018-08-18T05:19:53.872Z,49.60
2018-08-18T05:20:58.791Z,49.50
2018-08-18T05:22:03.554Z,49.50
2018-08-18T05:23:08.286Z,49.60
2018-08-18T05:24:13.200Z,49.50
2018-08-18T05:25:17.934Z,49.60
2018-08-18T05:26:23.044Z,49.60
2018-08-18T05:27:27.772Z,49.60
2018-08-18T05:28:32.646Z,49.60
2018-08-18T05:29:37.389Z,49.60
2018-08-18T05:30:42.457Z,49.70
2018-08-18T05:31:47.404Z,49.60
2018-08-18T05:32:52.315Z,49.50
2018-08-18T05:33:57.203Z,49.50
2018-08-18T05:35:02.131Z,49.50
2018-08-18T05:36:06.972Z,49.50
2018-08-18T05:37:11.927Z,49.50
2018-08-18T05:38:16.889Z,49.50
2018-08-18T05:39:21.609Z,49.50
2018-08-18T05:40:26.574Z,49.60
2018-08-18T05:41:31.420Z,49.50
2018-08-18T05:42:36.316Z,49.60
2018-08-18T05:43:41.413Z,49.60
2018-08-18T05:44:46.343Z,49.80
2018-08-18T05:45:51.459Z,49.70
2018-08-18T05:46:56.244Z,49.80
2018-08-18T05:48:01.384Z,49.80
2018-08-18T05:49:06.128Z,49.80
2018-08-18T05:50:10.919Z,49.80
2018-08-18T05:51:15.900Z,49.80
2018-08-18T05:52:20.794Z,49.80
2018-08-18T05:53:26.168Z,49.80
2018-08-18T05:54:30.872Z,49.80
2018-08-18T05:55:35.794Z,49.80
2018-08-18T05:56:40.966Z,49.80
2018-08-18T05:57:46.075Z,49.90
2018-08-18T05:58:51.174Z,49.90
2018-08-18T05:59:55.930Z,49.80
2018-08-18T06:01:00.839Z,49.80
2018-08-18T06:02:05.591Z,49.80
2018-08-18T06:03:10.570Z,49.90
2018-08-18T06:04:15.745Z,49.80
2018-08-18T06:05:20.720Z,49.80
2018-08-18T06:06:25.772Z,49.90
2018-08-18T06:07:30.854Z,49.90
2018-08-18T06:08:35.589Z,49.90
2018-08-18T06:09:40.311Z,49.90
2018-08-18T06:10:45.128Z,49.90
2018-08-18T06:11:49.902Z,50.00
2018-08-18T06:12:54.791Z,50.00
2018-08-18T06:13:59.669Z,50.00
2018-08-18T06:15:04.608Z,50.00
2018-08-18T06:16:09.954Z,50.00
2018-08-18T06:17:14.997Z,50.00
2018-08-18T06:18:20.144Z,50.00
2018-08-18T06:19:25.069Z,50.00
2018-08-18T06:20:30.032Z,50.10
2018-08-18T06:21:35.056Z,50.10
2018-08-18T06:22:39.853Z,50.10
2018-08-18T06:23:44.900Z,50.00
2018-08-18T06:24:49.884Z,50.10
2018-08-18T06:25:54.688Z,50.10
2018-08-18T06:26:59.790Z,50.10
2018-08-18T06:28:04.724Z,50.00
2018-08-18T06:29:09.925Z,50.00
2018-08-18T06:30:14.700Z,50.10
2018-08-18T06:31:19.710Z,50.10
2018-08-18T06:32:24.566Z,50.10
2018-08-18T06:33:29.684Z,50.10
2018-08-18T06:34:34.703Z,50.10
2018-08-18T06:35:39.498Z,50.10
2018-08-18T06:36:44.494Z,50.00
2018-08-18T06:37:49.562Z,50.10
2018-08-18T06:38:54.494Z,50.10
2018-08-18T06:39:59.495Z,50.00
2018-08-18T06:41:04.796Z,50.00
2018-08-18T06:42:09.731Z,50.10
2018-08-18T06:43:14.925Z,50.20
2018-08-18T06:44:19.921Z,50.20
2018-08-18T06:45:24.847Z,50.20
2018-08-18T06:46:29.869Z,50.20
2018-08-18T06:47:34.657Z,50.10
2018-08-18T06:48:39.634Z,50.10
2018-08-18T06:49:44.733Z,50.00
2018-08-18T06:50:49.706Z,50.00
2018-08-18T06:51:54.682Z,49.90
2018-08-18T06:52:59.629Z,49.90
2018-08-18T06:54:04.763Z,49.90
2018-08-18T06:55:09.605Z,49.90
2018-08-18T06:56:14.411Z,49.90
2018-08-18T06:57:19.487Z,49.90
2018-08-18T06:58:24.599Z,49.80
2018-08-18T06:59:29.412Z,49.80
2018-08-18T07:00:34.541Z,49.80
2018-08-18T07:01:39.555Z,49.80
2018-08-18T07:02:44.499Z,49.70
2018-08-18T07:03:49.454Z,49.80
2018-08-18T07:04:54.433Z,49.80
2018-08-18T07:05:59.423Z,49.80
2018-08-18T07:07:04.201Z,49.80
2018-08-18T07:08:09.284Z,49.80
2018-08-18T07:09:14.098Z,49.80
2018-08-18T07:10:18.838Z,49.80
2018-08-18T07:11:23.972Z,49.80
2018-08-18T07:12:28.853Z,49.80
2018-08-18T07:13:33.564Z,49.70
2018-08-18T07:14:38.453Z,49.70
2018-08-18T07:15:43.184Z,49.70
2018-08-18T07:16:48.031Z,49.70
2018-08-18T07:17:52.904Z,49.60
2018-08-18T07:18:57.615Z,50.20
2018-08-18T07:20:02.603Z,49.50
2018-08-18T07:21:07.363Z,49.50
2018-08-18T07:22:12.418Z,49.50
2018-08-18T07:23:17.597Z,49.40
2018-08-18T07:24:22.777Z,49.30
2018-08-18T07:25:27.782Z,49.30
2018-08-18T07:26:32.785Z,49.30
2018-08-18T07:27:37.861Z,49.30
2018-08-18T07:28:42.804Z,49.20
2018-08-18T07:29:47.747Z,49.30
2018-08-18T07:30:52.524Z,49.20
2018-08-18T07:31:57.606Z,49.30
2018-08-18T07:33:02.485Z,49.30
2018-08-18T07:34:07.304Z,49.30
2018-08-18T07:35:12.267Z,49.30
2018-08-18T07:36:17.395Z,49.40
2018-08-18T07:37:22.174Z,49.50
2018-08-18T07:38:27.124Z,49.40
2018-08-18T07:39:31.827Z,49.40
2018-08-18T07:40:36.706Z,49.50
2018-08-18T07:41:41.694Z,49.50
2018-08-18T07:42:46.667Z,49.60
2018-08-18T07:43:51.625Z,49.50
2018-08-18T07:44:56.315Z,49.50
2018-08-18T07:46:01.242Z,49.40
2018-08-18T07:47:05.972Z,49.40
2018-08-18T07:48:11.133Z,49.40
2018-08-18T07:49:16.345Z,49.50
2018-08-18T07:50:21.276Z,49.50
2018-08-18T07:51:26.541Z,49.60
2018-08-18T07:52:31.656Z,49.70
2018-08-18T07:53:36.714Z,49.70
2018-08-18T07:54:41.341Z,49.80
2018-08-18T07:55:46.436Z,49.80
2018-08-18T07:56:51.517Z,49.80
2018-08-18T07:57:56.597Z,49.80
2018-08-18T07:59:01.708Z,49.80
2018-08-18T08:00:06.699Z,49.80
2018-08-18T08:01:11.754Z,49.70
2018-08-18T08:02:16.854Z,49.70
2018-08-18T08:03:21.582Z,49.70
2018-08-18T08:04:26.299Z,49.80
2018-08-18T08:05:31.229Z,49.80
2018-08-18T08:06:36.297Z,49.80
2018-08-18T08:07:41.178Z,49.80
2018-08-18T08:08:46.140Z,50.10
2018-08-18T08:09:51.229Z,49.80
2018-08-18T08:10:56.203Z,49.80
2018-08-18T08:12:00.972Z,49.70
2018-08-18T08:13:05.891Z,49.70
2018-08-18T08:14:10.602Z,49.70
2018-08-18T08:15:15.548Z,49.70
2018-08-18T08:16:20.499Z,49.70
2018-08-18T08:17:25.318Z,49.70
2018-08-18T08:18:30.441Z,49.70
2018-08-18T08:19:35.338Z,49.80
2018-08-18T08:20:40.217Z,49.80
2018-08-18T08:21:45.018Z,49.70
2018-08-18T08:22:50.138Z,49.70
2018-08-18T08:23:55.234Z,49.70
2018-08-18T08:25:00.204Z,49.80
2018-08-18T08:26:04.940Z,49.80
2018-08-18T08:27:10.195Z,49.80
2018-08-18T08:28:15.052Z,49.80
2018-08-18T08:29:20.024Z,49.80
2018-08-18T08:30:25.244Z,49.80
2018-08-18T08:31:30.153Z,49.80
2018-08-18T08:32:34.886Z,49.70
2018-08-18T08:33:39.967Z,49.60
2018-08-18T08:34:44.828Z,49.60
2018-08-18T08:35:49.787Z,49.50
2018-08-18T08:36:54.967Z,49.50
2018-08-18T08:37:59.588Z,49.60
2018-08-18T08:39:04.545Z,49.50
2018-08-18T08:40:09.430Z,49.50
2018-08-18T08:41:14.534Z,49.50
2018-08-18T08:42:19.638Z,49.50
2018-08-18T08:43:24.716Z,49.50
2018-08-18T08:44:29.716Z,49.50
2018-08-18T08:45:34.464Z,49.60
2018-08-18T08:46:39.568Z,49.60
2018-08-18T08:47:44.352Z,49.60
2018-08-18T08:48:49.304Z,49.60
2018-08-18T08:49:54.397Z,49.60
2018-08-18T08:50:59.249Z,49.50
2018-08-18T08:52:04.373Z,49.50
2018-08-18T08:53:09.306Z,49.60
2018-08-18T08:54:14.304Z,49.50
2018-08-18T08:55:19.342Z,49.50
2018-08-18T08:56:24.239Z,49.40
2018-08-18T08:57:29.217Z,49.60
2018-08-18T08:58:34.269Z,49.60
2018-08-18T08:59:39.164Z,49.60
2018-08-18T09:00:44.102Z,49.60
2018-08-18T09:01:48.997Z,49.50
2018-08-18T09:02:53.976Z,49.50
2018-08-18T09:03:58.922Z,49.50
2018-08-18T09:05:03.997Z,49.50
2018-08-18T09:06:09.169Z,49.50
2018-08-18T09:07:14.256Z,49.50
2018-08-18T09:08:19.255Z,49.50
2018-08-18T09:09:24.136Z,50.10
2018-08-18T09:10:28.943Z,49.40
2018-08-18T09:11:33.670Z,49.50
2018-08-18T09:12:38.614Z,49.40
2018-08-18T09:13:43.821Z,49.40
2018-08-18T09:14:48.963Z,49.40
2018-08-18T09:15:53.813Z,49.50
2018-08-18T09:16:58.743Z,49.40
2018-08-18T09:18:03.549Z,49.40
2018-08-18T09:19:08.307Z,49.40
2018-08-18T09:20:13.355Z,49.30
2018-08-18T09:21:18.382Z,49.30
2018-08-18T09:22:23.473Z,49.30
2018-08-18T09:23:28.361Z,49.20
2018-08-18T09:24:33.313Z,49.20
2018-08-18T09:25:38.562Z,49.30
2018-08-18T09:26:43.758Z,49.20
2018-08-18T09:27:49.013Z,49.20
2018-08-18T09:28:54.199Z,49.10
2018-08-18T09:29:59.131Z,49.00
2018-08-18T09:31:04.392Z,48.90
2018-08-18T09:32:09.183Z,48.70
2018-08-18T09:33:14.094Z,48.70
2018-08-18T09:34:19.326Z,48.60
2018-08-18T09:35:24.017Z,48.30
2018-08-18T09:36:28.923Z,48.30
2018-08-18T09:37:33.964Z,48.30
2018-08-18T09:38:38.706Z,48.30
2018-08-18T09:39:43.621Z,48.20
2018-08-18T09:40:48.433Z,48.80
2018-08-18T09:41:53.224Z,48.00
2018-08-18T09:42:57.984Z,48.20
2018-08-18T09:44:03.109Z,48.30
2018-08-18T09:45:08.123Z,48.30
2018-08-18T09:46:13.231Z,48.10
2018-08-18T09:47:18.206Z,48.00
2018-08-18T09:48:23.297Z,48.00
2018-08-18T09:49:28.424Z,48.00
2018-08-18T09:50:33.155Z,48.00
2018-08-18T09:51:38.137Z,48.10
2018-08-18T09:52:43.251Z,48.00
2018-08-18T09:53:48.389Z,48.00
2018-08-18T09:54:53.504Z,48.00
2018-08-18T09:55:58.225Z,48.00
2018-08-18T09:57:02.946Z,48.00
2018-08-18T09:58:08.068Z,47.90
2018-08-18T09:59:13.156Z,47.90
2018-08-18T10:00:17.906Z,48.10
2018-08-18T10:01:22.839Z,48.10
2018-08-18T10:02:27.536Z,48.10
2018-08-18T10:03:32.488Z,48.10
2018-08-18T10:04:37.684Z,48.20
2018-08-18T10:05:42.634Z,48.10
2018-08-18T10:06:47.570Z,48.10
2018-08-18T10:07:52.311Z,48.10
2018-08-18T10:08:57.528Z,48.10
2018-08-18T10:10:02.362Z,48.10
2018-08-18T10:11:07.338Z,48.20
2018-08-18T10:12:12.355Z,48.20
2018-08-18T10:13:17.424Z,48.20
2018-08-18T10:14:22.372Z,48.20
2018-08-18T10:15:27.503Z,48.00
2018-08-18T10:16:32.419Z,47.90
2018-08-18T10:17:37.458Z,47.90
2018-08-18T10:18:42.543Z,47.90
2018-08-18T10:19:47.322Z,47.60
2018-08-18T10:20:52.342Z,47.60
2018-08-18T10:21:57.109Z,47.60
2018-08-18T10:23:02.079Z,47.70
2018-08-18T10:24:07.101Z,47.70
2018-08-18T10:25:12.326Z,47.70
2018-08-18T10:26:17.487Z,47.70
2018-08-18T10:27:22.508Z,47.80
2018-08-18T10:28:27.527Z,47.80
2018-08-18T10:29:32.434Z,47.80
2018-08-18T10:30:37.583Z,47.60
2018-08-18T10:31:42.399Z,47.50
2018-08-18T10:32:47.370Z,47.30
2018-08-18T10:33:52.426Z,47.20
2018-08-18T10:34:57.546Z,47.10
2018-08-18T10:36:02.513Z,47.20
2018-08-18T10:37:07.359Z,47.20
2018-08-18T10:38:12.343Z,47.20
2018-08-18T10:39:17.367Z,47.10
2018-08-18T10:40:22.255Z,47.10
2018-08-18T10:41:27.172Z,46.90
2018-08-18T10:42:32.187Z,46.90
2018-08-18T10:43:37.342Z,46.80
2018-08-18T10:44:42.530Z,46.80
2018-08-18T10:45:47.509Z,46.80
2018-08-18T10:46:52.412Z,46.70
2018-08-18T10:47:57.371Z,46.70
2018-08-18T10:49:02.084Z,46.60
2018-08-18T10:50:07.324Z,46.50
2018-08-18T10:51:12.509Z,46.20
2018-08-18T10:52:17.830Z,46.20
2018-08-18T10:53:22.732Z,45.90
2018-08-18T10:54:27.734Z,45.80
2018-08-18T10:55:32.775Z,45.50
2018-08-18T10:56:37.949Z,45.60
2018-08-18T10:57:42.958Z,45.20
2018-08-18T10:58:48.123Z,45.10
2018-08-18T10:59:53.133Z,45.70
2018-08-18T11:00:58.190Z,45.10
2018-08-18T11:02:02.967Z,44.80
2018-08-18T11:03:07.998Z,44.60
2018-08-18T11:04:13.031Z,44.40
2018-08-18T11:05:18.563Z,44.30
2018-08-18T11:06:23.587Z,44.20
2018-08-18T11:07:28.394Z,44.20
2018-08-18T11:08:33.342Z,44.20
2018-08-18T11:09:38.289Z,44.20
2018-08-18T11:10:43.227Z,44.20
2018-08-18T11:11:47.997Z,44.30
2018-08-18T11:12:52.959Z,44.20
2018-08-18T11:13:57.993Z,44.20
2018-08-18T11:15:03.054Z,44.40
2018-08-18T11:16:07.817Z,44.50
2018-08-18T11:17:12.590Z,44.60
2018-08-18T11:18:17.622Z,44.90
2018-08-18T11:19:22.755Z,45.00
2018-08-18T11:20:28.141Z,45.10
2018-08-18T11:21:33.197Z,45.10
2018-08-18T11:22:37.910Z,45.00
2018-08-18T11:23:42.820Z,45.10
2018-08-18T11:24:47.903Z,44.90
2018-08-18T11:25:52.971Z,45.00
2018-08-18T11:26:58.104Z,44.90
2018-08-18T11:28:03.233Z,44.90
2018-08-18T11:29:08.001Z,44.90
2018-08-18T11:30:12.917Z,44.90
2018-08-18T11:31:17.795Z,44.90
2018-08-18T11:32:22.719Z,45.00
2018-08-18T11:33:27.491Z,45.00
2018-08-18T11:34:32.382Z,45.10
2018-08-18T11:35:37.366Z,45.20
2018-08-18T11:36:42.285Z,45.20
2018-08-18T11:37:47.207Z,45.30
2018-08-18T11:38:52.305Z,45.30
2018-08-18T11:39:57.330Z,45.30
2018-08-18T11:41:02.264Z,45.20
2018-08-18T11:42:07.185Z,45.30
2018-08-18T11:43:12.286Z,45.30
2018-08-18T11:44:17.236Z,45.50
2018-08-18T11:45:22.336Z,45.50
2018-08-18T11:46:27.163Z,45.50
2018-08-18T11:47:32.259Z,45.60
2018-08-18T11:48:37.918Z,45.40
2018-08-18T11:49:42.812Z,45.30
2018-08-18T11:50:48.760Z,45.20
2018-08-18T11:51:53.534Z,45.10
2018-08-18T11:52:59.260Z,45.10
2018-08-18T11:54:04.232Z,45.40
2018-08-18T11:55:09.233Z,45.40
2018-08-18T11:56:14.342Z,45.50
2018-08-18T11:57:19.591Z,45.80
2018-08-18T11:58:24.744Z,45.70
2018-08-18T11:59:29.873Z,45.60
2018-08-18T12:00:34.829Z,45.60
2018-08-18T12:01:39.554Z,45.70
2018-08-18T12:02:44.277Z,45.80
2018-08-18T12:03:49.040Z,46.00
2018-08-18T12:04:53.725Z,46.10
2018-08-18T12:05:58.679Z,46.00
2018-08-18T12:07:03.797Z,46.20
2018-08-18T12:08:08.581Z,46.20
2018-08-18T12:09:13.691Z,46.10
2018-08-18T12:10:18.394Z,46.10
2018-08-18T12:11:23.473Z,46.10
2018-08-18T12:12:28.298Z,45.90
2018-08-18T12:13:33.435Z,46.20
2018-08-18T12:14:38.565Z,46.40
2018-08-18T12:15:43.256Z,46.50
2018-08-18T12:16:48.415Z,46.60
2018-08-18T12:17:53.269Z,46.70
2018-08-18T12:18:58.434Z,46.70
2018-08-18T12:20:03.267Z,46.80
2018-08-18T12:21:08.157Z,46.90
2018-08-18T12:22:12.898Z,47.00
2018-08-18T12:23:17.672Z,47.00
2018-08-18T12:24:22.555Z,47.00
2018-08-18T12:25:27.500Z,46.50
2018-08-18T12:26:32.278Z,46.70
2018-08-18T12:27:37.299Z,46.60
2018-08-18T12:28:42.164Z,46.70
2018-08-18T12:29:47.225Z,46.70
2018-08-18T12:30:52.338Z,46.70
2018-08-18T12:31:57.050Z,46.70
2018-08-18T12:33:01.973Z,46.80
2018-08-18T12:34:06.767Z,46.70
2018-08-18T12:35:11.656Z,46.70
2018-08-18T12:36:16.586Z,46.60
2018-08-18T12:37:21.259Z,46.60
2018-08-18T12:38:26.185Z,46.70
2018-08-18T12:39:31.294Z,46.80
2018-08-18T12:40:36.438Z,46.80
2018-08-18T12:41:41.495Z,46.80
2018-08-18T12:42:46.244Z,46.90
2018-08-18T12:43:51.212Z,46.90
2018-08-18T12:44:56.152Z,46.90
2018-08-18T12:46:01.065Z,46.90
2018-08-18T12:47:06.461Z,46.90
2018-08-18T12:48:11.381Z,46.80
2018-08-18T12:49:16.318Z,46.70
2018-08-18T12:50:21.249Z,46.50
2018-08-18T12:51:26.328Z,46.60
2018-08-18T12:52:31.319Z,46.70
2018-08-18T12:53:36.463Z,47.50
2018-08-18T12:54:41.528Z,47.00
2018-08-18T12:55:46.388Z,47.10
2018-08-18T12:56:51.088Z,47.10
2018-08-18T12:57:56.148Z,46.90
2018-08-18T12:59:01.484Z,46.90
2018-08-18T13:00:06.577Z,46.80
2018-08-18T13:01:11.467Z,46.70
2018-08-18T13:02:16.394Z,46.70
2018-08-18T13:03:21.582Z,46.80
2018-08-18T13:04:26.491Z,46.70
2018-08-18T13:05:31.497Z,46.80
2018-08-18T13:06:36.567Z,46.90
2018-08-18T13:07:41.518Z,46.90
2018-08-18T13:08:46.573Z,47.10
2018-08-18T13:09:51.315Z,47.20
2018-08-18T13:10:56.271Z,47.30
2018-08-18T13:12:00.990Z,47.40
2018-08-18T13:13:05.720Z,47.50
2018-08-18T13:14:10.622Z,47.50
2018-08-18T13:15:15.386Z,47.50
2018-08-18T13:16:20.113Z,47.60
2018-08-18T13:17:25.025Z,47.60
2018-08-18T13:18:30.176Z,47.70
2018-08-18T13:19:34.949Z,47.70
2018-08-18T13:20:40.096Z,47.70
2018-08-18T13:21:45.180Z,47.80
2018-08-18T13:22:50.228Z,47.80
2018-08-18T13:23:54.911Z,47.90
2018-08-18T13:24:59.803Z,47.80
2018-08-18T13:26:04.734Z,47.60
2018-08-18T13:27:09.859Z,47.50
2018-08-18T13:28:14.915Z,47.10
2018-08-18T13:29:19.849Z,47.20
2018-08-18T13:30:24.806Z,47.20
2018-08-18T13:31:29.715Z,47.20
2018-08-18T13:32:34.478Z,46.90
2018-08-18T13:33:39.646Z,46.60
2018-08-18T13:34:44.643Z,46.40
2018-08-18T13:35:50.018Z,46.30
2018-08-18T13:36:54.936Z,46.40
2018-08-18T13:37:59.837Z,46.50
2018-08-18T13:39:04.931Z,46.40
2018-08-18T13:40:09.702Z,46.50
2018-08-18T13:41:14.672Z,46.60
2018-08-18T13:42:19.600Z,46.70
2018-08-18T13:43:24.464Z,46.80
2018-08-18T13:44:29.630Z,46.80
2018-08-18T13:45:34.374Z,46.80
2018-08-18T13:46:39.125Z,46.80
2018-08-18T13:47:44.335Z,46.90
2018-08-18T13:48:49.236Z,47.00
2018-08-18T13:49:54.157Z,47.10
2018-08-18T13:50:58.998Z,47.10
2018-08-18T13:52:03.831Z,47.10
2018-08-18T13:53:09.056Z,47.00
2018-08-18T13:54:14.263Z,46.60
2018-08-18T13:55:19.324Z,46.20
2018-08-18T13:56:24.487Z,46.10